• Join FlightAware (Why Join?)
  • Login
  • US Flag 
08:26AM EDT


 

Airport Tracker/Info


-or-


 

Live Flight TrackerFlight Track Log ✈ N785JP ✈ 09-May-2013 ✈ KSYR - 5B2

Flight Track Log - Related Links

Times and Time Zones

All times are in EDT time to prevent confusion due to time zone crossing. See the N785JP flight status page for this flight to view local times or setup timezone preferences in your user account.

Time Position Orientation Groundspeed Altitude Reporting Facility
EDT Latitude Longitude Course Direction KTS MPH feet Rate Location/Type
04:25PM 43.0792 -76.0419 120° Southeast 163 188 2,200  Level Boston Center
04:26PM 43.0742 -76.0047 100° East 165 190 3,000 1,380 Climbing Boston Center
04:26PM 43.0706 -75.9819 102° East 169 194 3,600 1,380 Climbing Boston Center
04:27PM 43.0719 -75.9364 88° East 177 204 4,400 960 Climbing Boston Center
04:27PM 43.0686 -75.9106 100° East 186 214 4,600  Climbing Boston Center
04:28PM 43.0711 -75.8283 88° East 216 249 4,400 -180 Descending Boston Center
04:29PM 43.0692 -75.7542 92° East 216 249 4,300 120 Descending Boston Center
04:30PM 43.0714 -75.6806 88° East 209 241 4,700 600 Climbing Boston Center
04:31PM 43.0708 -75.6208 91° East 191 220 5,400 360 Climbing Boston Center
04:32PM 43.0689 -75.5411 92° East 200 230 5,500 60 Climbing Boston Center
04:33PM 43.0692 -75.4558 90° East 226 260 5,600  Climbing Boston Center
04:34PM 43.0672 -75.3647 92° East 225 259 5,500 -60 Descending Boston Center
04:35PM 43.0678 -75.2681 90° East 220 253 5,500  Level Boston Center
04:36PM 43.0594 -75.1797 97° East 220 253 5,500  Level Boston Center
04:37PM 43.0531 -75.0969 96° East 217 250 5,500  Level Boston Center
04:38PM 43.0467 -75.0142 96° East 216 249 5,500  Level Boston Center
04:39PM 43.0361 -74.9258 99° East 216 249 5,600  Climbing Boston Center
04:40PM 43.0314 -74.8461 95° East 216 249 5,500 -60 Descending Boston Center
04:41PM 43.0206 -74.7689 101° East 215 247 5,500  Level Boston Center
04:43PM 43.0058 -74.6744 102° East 211 243 5,500  Level Boston Center
04:43PM 42.9964 -74.6203 103° East 225 259 5,600 60 Climbing Boston Center
04:44PM 42.9917 -74.5406 95° East 220 253 5,600 -480 Level Boston Center
04:45PM 43.0036 -74.4558 79° East 227 261 4,700 -900 Descending Boston Center
04:46PM 43.0281 -74.3772 67° East 231 266 3,900 -840 Descending Boston Center